O'tomne en Savoie LA FECLAZ (73) - D

Date : 29/09/2012
Distance : 2,100 km

Place Nom Licence Catégorie Club Temps min/km CN à J-60 Points Différence Nouveau CN
1 DROIN Solène 17925 D16 4201RA 0:20:49 9'54 5083 5780 +697 5307
2 PERRIN Mathieu 8976 H14 4201RA 0:22:53 10'53 5269 5258 -11 5281
3 BODY Mathilde 10184 D16 7305RA 0:23:57 11'24 5246 5024 -222 5332
4 BORNARD Julie 9402 D16 7305RA 0:26:10 12'27 4607 4598 -9 4729
5 MASLIAH Raphaël 26389 H14 2610RA 0:26:20 12'32 4478 4569 +91 4549
6 MASCARELL Henri 8928 H60 6911RA 0:27:02 12'52 5519 4451 -1068 5303
7 GHIBAUDO Simon 20917 H14 4203RA 0:27:38 13'09 3409 4354 +945 3543
8 VALETTE Marion 10430 D16 6913RA 0:28:17 13'28 3794 4254 +460 3973
9 VUITTON Marie 18842 D14 6911RA 0:28:26 13'32 3822 4232 +410 3837
10 BASSET Fiona 23384 D16 6911RA 0:28:44 13'40 4204 4187 -17 4281
11 STARKE Paula 26505 D16 6913RA 0:29:45 14'10 4044 0
12 GENNARO Mathis 22689 H12 3811RA 0:31:53 15'10 3407 3774 +367 3500
13 BONORA Marine 11542 D16 6906RA 0:33:47 16'05 3661 3561 -100 3683
14 GOLMARD Christian 2669 H65 2101BO 0:34:08 16'15 4662 3525 -1137 4166
15 PONCET Jean-Pierre 16756 H65 3913FC 0:35:17 16'48 5992 3410 -2582 5446
16 DUDOIGNON Chloé 18089 D14 2605RA 0:35:32 16'55 3443 3386 -57 3526
17 ROCHE Maxime 15418 H14 6911RA 0:35:54 17'05 3502 3351 -151 3568
18 GASTINI gaetan 24931 H16 7307RA 0:36:08 17'12 2808 3330 +522 3000
19 GINTZBURGER Colas 25057 H14 7407RA 0:36:54 17'34 2748 3261 +513 2851
20 COMBET Annie 813 D50 4203RA 0:37:39 17'55 4533 3196 -1337 4533
21 BONORA Lise 11543 D14 6906RA 0:37:57 18'04 2654 3170 +516 2861
22 BASSET Juliette 12398 D14 6911RA 0:38:36 18'22 3688 3117 -571 3709
23 EUZEN J-Paul 16403 H70 6911RA 0:40:39 19'21 2652 2960 +308 2652
24 SUCHET Gaspard 15343 H14 4204RA 0:40:59 19'30 1781 2936 +1155 2044
25 MOREAU Merlin 19584 H14 2605RA 0:42:00 20'00 3141 2865 -276 3229
26 PITAVAL Sylvie 12060 D50 4201RA 0:43:14 20'35 3811 2783 -1028 3416
27 ANTOINE Alain 1270 H65 2605RA 0:43:39 20'47 4932 2756 -2176 4932
28 PONCET Catherine 16755 D50 3913FC 0:44:01 20'57 3318 2733 -585 3318
29 JACOMINO Mireille 277 D50 3801RA 0:44:53 21'22 4108 2681 -1427 4073
30 DIDIER Marion 19566 D14 7305RA 0:44:57 21'24 2628 2677 +49 2684
31 BORNARD Fabienne 8427 D40 7305RA 0:45:03 21'27 2919 2671 -248 2919
32 TESSIER Jean-marc 23870 H40 3801RA 0:46:34 22'10 3136 2584 -552 2707
33 ROUX Marie Françoise 25236 D50 4201RA 0:47:50 22'46 3832 2515 -1317 3832
34 ANNE Roger 1673 H60 0111RA 0:47:57 22'50 4476 2509 -1967 4307
35 GASTINI benjamin 24929 H16 7307RA 0:51:47 24'39 3271 2323 -948 2981
36 GUET Martine 11810 D55 6906RA 0:52:14 24'52 2828 2303 -525 2828
37 CORBIN Emma 20916 D14 2604RA 0:52:19 24'54 2746 2300 -446 2459
38 VILLEDIEU Martine 13752 D55 6913RA 0:53:32 25'29 3566 2248 -1318 3583
39 MARGUERETTAZ Candice 26519 D14 7404RA 0:55:00 26'11 2188 0
40 RINGOT Veronique 12356 D45 6913RA 0:55:09 26'15 3295 2182 -1113 2569
41 BOURRIN M-Francoise 807 D55 4203RA 0:58:53 28'02 3111 2043 -1068 3111
42 LE GLAND Louise 22186 D14 7404RA 0:58:55 28'03 1804 2042 +238 1993
43 NICOLAS Léa 18641 D18 7407RA 0:59:06 28'08 0 2036 1955
44 SLIMAN Jacques 4537 H60 0503PR 1:01:11 29'08 4007 1967 -2040 3954
45 FERRAND M-Christine 8626 D55 3811RA 1:01:18 29'11 3311 1963 -1348 2940
46 RIVOLLIER Isaline 22451 D16 4201RA 1:01:35 29'19 4296 1954 -2342 4252
47 DESCOURVIERES Perrine 25550 D16 7407RA 1:02:35 29'48 1928 1923 -5 1949
48 VORWERK Camille 25747 D14 4201RA 1:03:15 30'07 1143 1902 +759 1332
49 LENFANT Chantal 10264 D55 3811RA 1:04:34 30'44 3077 1863 -1214 2832
50 PERREARD-GARIN Soraya 25343 D14 7407RA 1:06:21 31'35 1894 1813 -81 1981
51 LEVESY Salomé 23127 D14 3810RA 1:15:10 35'47 2609 1601 -1008 2495
52 GIBIAT Danielle 3547 D55 8405PR 1:16:08 36'15 3476 1580 -1896 3211
53 DUFOUR Marie 26623 D16 7407RA 1:16:26 36'23 1574 0
54 GREFF Maël 25096 H14 0111RA 1:17:23 36'50 1371 1555 +184 1432
55 BOURRIN Michel 809 H60 4203RA 1:17:45 37'01 1673 1547 -126 1654
56 CATMUR virginia 25103 D55 0503PR 1:21:02 38'35 1785 1485 -300 1785
57 LUCATELLI Elea 23840 D21 3810RA 1:23:08 39'35 1830 1447 -383 1853
58 TESSIER Christel 23871 D40 3801RA 1:39:54 47'34 2888 1204 -1684 2639
59 BOUCHERLE Ghislaine 4479 D60 3801RA 1:40:16 47'44 3285 1200 -2085 3285
60 RIVOLLIER Stéphanie 24185 D40 4201RA 1:52:01 53'20 1074 0
61 DROIN Marie-helene 21209 D45 4201RA 1:54:02 54'18 0 1055 1034
BASSET Noëllie 24039 D14 6911RA pm None 2202 0 1952
SINIBALDI Marc 1347 H70 3801RA pm None 4587 0 4587
VORWERK Marine 25746 D14 4201RA pm None 1383 0 1411